createdAt,value
2023-02-03T00:02:25.766Z,11.77
2023-02-03T00:04:52.601Z,8.50
2023-02-03T00:07:19.699Z,9.20
2023-02-03T00:09:46.674Z,5.10
2023-02-03T00:12:14.426Z,11.43
2023-02-03T00:14:41.297Z,7.77
2023-02-03T00:17:08.398Z,5.40
2023-02-03T00:19:36.581Z,7.10
2023-02-03T00:22:03.477Z,6.10
2023-02-03T00:24:30.399Z,10.07
2023-02-03T00:26:57.233Z,9.90
2023-02-03T00:29:25.959Z,7.80
2023-02-03T00:31:53.913Z,6.87
2023-02-03T00:34:21.373Z,5.50
2023-02-03T00:36:49.664Z,8.23
2023-02-03T00:39:16.810Z,8.47
2023-02-03T00:41:43.784Z,6.47
2023-02-03T00:44:11.060Z,7.07
2023-02-03T00:46:38.096Z,5.20
2023-02-03T00:49:05.740Z,4.53
2023-02-03T00:51:33.535Z,6.83
2023-02-03T00:54:01.739Z,7.97
2023-02-03T00:56:28.655Z,8.83
2023-02-03T00:58:55.712Z,8.87
2023-02-03T01:01:22.709Z,6.60
2023-02-03T01:03:50.072Z,4.23
2023-02-03T01:06:20.290Z,4.43
2023-02-03T01:08:48.772Z,7.93
2023-02-03T01:11:20.769Z,5.50
2023-02-03T01:13:50.151Z,9.03
2023-02-03T01:16:20.595Z,6.77
2023-02-03T01:18:48.522Z,5.73
2023-02-03T01:21:20.167Z,6.30
2023-02-03T01:23:47.559Z,8.13
2023-02-03T01:26:19.675Z,9.23
2023-02-03T01:28:51.933Z,4.63
2023-02-03T01:31:22.891Z,5.03
2023-02-03T01:33:51.961Z,5.17
2023-02-03T01:36:19.142Z,6.97
2023-02-03T01:38:46.551Z,5.50
2023-02-03T01:41:17.744Z,5.17
2023-02-03T01:43:50.060Z,3.97
2023-02-03T01:46:33.448Z,6.13
2023-02-03T01:49:08.110Z,3.93
2023-02-03T01:51:38.261Z,6.50
2023-02-03T01:54:07.473Z,4.97
2023-02-03T01:56:40.554Z,9.93
2023-02-03T01:59:07.988Z,5.37
2023-02-03T02:01:35.757Z,7.97
2023-02-03T02:04:04.919Z,7.13
2023-02-03T02:06:31.836Z,7.87
2023-02-03T02:09:00.740Z,4.87
2023-02-03T02:11:29.536Z,9.13
2023-02-03T02:14:01.916Z,8.27
2023-02-03T02:16:45.903Z,8.03
2023-02-03T02:20:06.334Z,4.57
2023-02-03T02:22:57.120Z,6.40
2023-02-03T02:26:26.994Z,8.03
2023-02-03T02:29:28.039Z,5.37
2023-02-03T02:32:16.250Z,6.97
2023-02-03T02:34:55.911Z,6.00
2023-02-03T02:37:35.117Z,7.73
2023-02-03T02:40:19.707Z,5.73
2023-02-03T02:43:02.242Z,6.90
2023-02-03T02:45:39.204Z,5.93
2023-02-03T02:48:17.522Z,4.93
2023-02-03T02:50:49.481Z,7.77
2023-02-03T02:53:22.730Z,6.27
2023-02-03T02:55:51.906Z,6.07
2023-02-03T02:58:21.632Z,5.37
2023-02-03T03:00:48.557Z,6.70
2023-02-03T03:03:20.057Z,8.77
2023-02-03T03:05:53.626Z,5.80
2023-02-03T03:08:29.163Z,7.37
2023-02-03T03:11:00.800Z,5.63
2023-02-03T03:13:34.035Z,6.27
2023-02-03T03:16:07.584Z,4.80
2023-02-03T03:18:43.367Z,8.63
2023-02-03T03:21:18.249Z,4.27
2023-02-03T03:23:51.263Z,6.90
2023-02-03T03:26:28.722Z,4.53
2023-02-03T03:29:06.714Z,8.17
2023-02-03T03:31:33.892Z,5.73
2023-02-03T03:34:02.969Z,7.67
2023-02-03T03:36:38.761Z,5.93
2023-02-03T03:39:15.620Z,3.97
2023-02-03T03:41:57.843Z,5.23
2023-02-03T03:44:32.973Z,6.17
2023-02-03T03:47:19.088Z,4.60
2023-02-03T03:49:48.950Z,8.20
2023-02-03T03:52:22.372Z,6.63
2023-02-03T03:54:52.639Z,8.27
2023-02-03T03:57:25.894Z,5.50
2023-02-03T03:59:54.694Z,7.07
2023-02-03T04:02:23.904Z,6.20
2023-02-03T04:04:54.095Z,5.73
2023-02-03T04:07:21.054Z,7.37
2023-02-03T04:09:48.129Z,8.37
2023-02-03T04:12:23.141Z,6.30
2023-02-03T04:14:50.223Z,6.43
2023-02-03T04:17:19.933Z,4.63
2023-02-03T04:19:47.514Z,8.03
2023-02-03T04:22:15.698Z,6.60
2023-02-03T04:24:42.640Z,7.40
2023-02-03T04:27:09.673Z,9.43
2023-02-03T04:29:36.623Z,4.77
2023-02-03T04:32:03.997Z,6.47
2023-02-03T04:34:30.930Z,4.43
2023-02-03T04:36:57.878Z,6.23
2023-02-03T04:39:26.149Z,7.37
2023-02-03T04:41:53.022Z,6.50
2023-02-03T04:44:19.911Z,6.23
2023-02-03T04:46:46.834Z,5.97
2023-02-03T04:49:13.707Z,7.90
2023-02-03T04:51:40.592Z,6.90
2023-02-03T04:54:08.657Z,6.00
2023-02-03T04:56:37.623Z,8.13
2023-02-03T04:59:04.594Z,5.37
2023-02-03T05:01:31.688Z,4.93
2023-02-03T05:03:58.642Z,6.83
2023-02-03T05:06:32.750Z,6.77
2023-02-03T05:08:59.593Z,7.23
2023-02-03T05:11:27.051Z,8.67
2023-02-03T05:13:55.391Z,7.43
2023-02-03T05:16:22.374Z,7.90
2023-02-03T05:18:49.325Z,7.10
2023-02-03T05:21:16.443Z,7.23
2023-02-03T05:23:43.339Z,5.97
2023-02-03T05:26:10.731Z,7.17
2023-02-03T05:28:37.856Z,11.07
2023-02-03T05:31:06.506Z,8.03
2023-02-03T05:33:33.733Z,3.67
2023-02-03T05:36:00.653Z,6.03
2023-02-03T05:38:27.782Z,7.33
2023-02-03T05:41:13.460Z,10.90
2023-02-03T05:43:40.339Z,8.57
2023-02-03T05:46:08.697Z,6.73
2023-02-03T05:48:35.768Z,5.00
2023-02-03T05:51:02.830Z,7.07
2023-02-03T05:53:29.760Z,6.20
2023-02-03T05:55:56.687Z,10.33
2023-02-03T05:58:23.576Z,9.57
2023-02-03T06:00:51.631Z,7.07
2023-02-03T06:03:20.528Z,9.37
2023-02-03T06:05:47.408Z,6.97
2023-02-03T06:08:15.227Z,5.67
2023-02-03T06:10:42.135Z,6.53
2023-02-03T06:13:12.053Z,4.77
2023-02-03T06:15:39.712Z,6.93
2023-02-03T06:18:07.408Z,10.37
2023-02-03T06:20:35.860Z,7.47
2023-02-03T06:23:02.834Z,5.50
2023-02-03T06:25:32.058Z,7.13
2023-02-03T06:27:59.389Z,6.77
2023-02-03T06:30:26.853Z,6.93
2023-02-03T06:32:54.499Z,6.07
2023-02-03T06:35:21.420Z,8.00
2023-02-03T06:37:49.623Z,7.90
2023-02-03T06:40:16.576Z,7.33
2023-02-03T06:42:45.877Z,6.90
2023-02-03T06:45:13.130Z,6.93
2023-02-03T06:47:40.754Z,6.30
2023-02-03T06:50:09.175Z,10.83
2023-02-03T06:52:36.228Z,6.47
2023-02-03T06:55:05.734Z,9.57
2023-02-03T06:57:33.080Z,6.77
2023-02-03T06:59:59.972Z,6.97
2023-02-03T07:02:26.899Z,10.20
2023-02-03T07:04:53.788Z,4.77
2023-02-03T07:07:20.682Z,7.93
2023-02-03T07:09:47.560Z,7.20
2023-02-03T07:12:15.885Z,6.50
2023-02-03T07:14:42.876Z,6.20
2023-02-03T07:17:09.795Z,6.60
2023-02-03T07:19:36.904Z,8.07
2023-02-03T07:22:03.830Z,5.83
2023-02-03T07:24:30.708Z,5.33
2023-02-03T07:26:57.702Z,6.57
2023-02-03T07:29:25.979Z,9.83
2023-02-03T07:31:53.001Z,7.23
2023-02-03T07:34:20.279Z,9.67
2023-02-03T07:36:47.193Z,5.87
2023-02-03T07:39:14.125Z,7.40
2023-02-03T07:41:41.108Z,7.80
2023-02-03T07:44:09.335Z,6.57
2023-02-03T07:46:41.347Z,5.60
2023-02-03T07:49:10.345Z,7.20
2023-02-03T07:51:37.375Z,7.40
2023-02-03T07:54:04.848Z,7.70
2023-02-03T07:56:32.749Z,6.27
2023-02-03T07:59:02.383Z,7.83
2023-02-03T08:01:34.021Z,7.53
2023-02-03T08:04:05.214Z,10.50
2023-02-03T08:06:32.258Z,10.90
2023-02-03T08:08:59.209Z,7.80
2023-02-03T08:11:26.199Z,12.57
2023-02-03T08:13:53.160Z,9.30
2023-02-03T08:16:20.543Z,7.97
2023-02-03T08:18:47.472Z,9.40
2023-02-03T08:21:15.796Z,10.97
2023-02-03T08:23:42.676Z,12.57
2023-02-03T08:26:09.627Z,9.93
2023-02-03T08:28:36.490Z,13.40
2023-02-03T08:31:10.840Z,11.47
2023-02-03T08:33:38.048Z,8.40
2023-02-03T08:36:06.105Z,11.73
2023-02-03T08:38:34.384Z,8.37
2023-02-03T08:41:01.420Z,11.27
2023-02-03T08:43:28.390Z,10.50
2023-02-03T08:45:55.328Z,11.70
2023-02-03T08:48:22.198Z,14.33
2023-02-03T08:50:52.715Z,7.70
2023-02-03T08:53:19.751Z,11.20
2023-02-03T08:55:48.101Z,12.97
2023-02-03T08:58:15.164Z,10.73
2023-02-03T09:00:42.646Z,11.20
2023-02-03T09:03:09.611Z,9.30
2023-02-03T09:05:37.047Z,8.83
2023-02-03T09:08:04.407Z,10.47
2023-02-03T09:10:31.510Z,15.00
2023-02-03T09:12:59.907Z,9.83
2023-02-03T09:15:27.044Z,13.80
2023-02-03T09:17:55.330Z,12.20
2023-02-03T09:20:23.484Z,9.53
2023-02-03T09:22:50.461Z,18.73
2023-02-03T09:25:17.782Z,9.90
2023-02-03T09:27:44.795Z,11.20
2023-02-03T09:30:14.421Z,6.87
2023-02-03T09:32:41.481Z,12.23
2023-02-03T09:35:08.591Z,13.37
2023-02-03T09:37:36.300Z,11.77
2023-02-03T09:40:03.937Z,13.97
2023-02-03T09:43:17.800Z,14.37
2023-02-03T09:45:46.181Z,10.17
2023-02-03T09:48:18.871Z,16.03
2023-02-03T09:50:48.984Z,13.37
2023-02-03T09:53:28.959Z,11.90
2023-02-03T09:55:58.492Z,16.47
2023-02-03T09:58:32.544Z,12.10
2023-02-03T10:01:05.543Z,13.30
2023-02-03T10:03:42.607Z,16.47
2023-02-03T10:06:26.126Z,18.37
2023-02-03T10:09:14.659Z,11.03
2023-02-03T10:12:12.362Z,14.87
2023-02-03T10:15:05.879Z,17.47
2023-02-03T10:17:39.952Z,17.57
2023-02-03T10:20:17.328Z,20.13
2023-02-03T10:22:53.456Z,16.40
2023-02-03T10:25:31.717Z,15.47
2023-02-03T10:28:04.792Z,14.17
2023-02-03T10:30:45.235Z,19.37
2023-02-03T10:33:17.624Z,17.47
2023-02-03T10:35:50.747Z,20.03
2023-02-03T10:38:35.800Z,19.90
2023-02-03T10:41:04.096Z,26.40
2023-02-03T10:43:47.968Z,18.57
2023-02-03T10:46:16.069Z,19.50
2023-02-03T10:48:44.677Z,20.17
2023-02-03T10:51:21.029Z,17.70
2023-02-03T10:53:48.616Z,15.23
2023-02-03T10:56:20.329Z,21.03
2023-02-03T10:58:50.544Z,22.10
2023-02-03T11:01:21.369Z,22.57
2023-02-03T11:04:00.334Z,21.03
2023-02-03T11:06:28.641Z,21.97
2023-02-03T11:08:56.432Z,14.43
2023-02-03T11:11:27.686Z,12.93
2023-02-03T11:14:17.067Z,17.53
2023-02-03T11:16:47.128Z,13.17
2023-02-03T11:19:19.361Z,15.67
2023-02-03T11:21:51.221Z,19.23
2023-02-03T11:24:22.356Z,21.57
2023-02-03T11:26:55.702Z,21.27
2023-02-03T11:29:26.718Z,17.00
2023-02-03T11:31:56.935Z,16.43
2023-02-03T11:34:31.000Z,20.70
2023-02-03T11:36:57.955Z,15.87
2023-02-03T11:39:28.618Z,21.13
2023-02-03T11:41:56.663Z,16.17
2023-02-03T11:44:29.071Z,20.17
2023-02-03T11:47:03.398Z,22.80
2023-02-03T11:50:02.874Z,32.43
2023-02-03T11:53:05.000Z,14.40
2023-02-03T11:55:54.037Z,19.03
2023-02-03T11:58:56.090Z,21.30
2023-02-03T12:02:09.672Z,17.63
2023-02-03T12:05:06.308Z,17.70
2023-02-03T12:07:58.363Z,17.13
2023-02-03T12:10:43.221Z,17.23
2023-02-03T12:13:33.830Z,14.93
2023-02-03T12:16:23.024Z,17.87
2023-02-03T12:19:07.848Z,13.07
2023-02-03T12:21:44.415Z,16.17
2023-02-03T12:24:30.621Z,14.57
2023-02-03T12:27:16.322Z,15.57
2023-02-03T12:29:53.701Z,23.53
2023-02-03T12:32:32.011Z,11.50
2023-02-03T12:35:11.647Z,17.47
2023-02-03T12:37:48.511Z,18.77
2023-02-03T12:40:26.511Z,19.50
2023-02-03T12:42:59.017Z,15.37
2023-02-03T12:45:31.242Z,18.90
2023-02-03T12:48:05.026Z,14.13
2023-02-03T12:50:44.671Z,13.17
2023-02-03T12:53:20.819Z,16.87
2023-02-03T12:55:55.778Z,16.67
2023-02-03T12:58:28.480Z,11.73
2023-02-03T13:01:04.246Z,15.80
2023-02-03T13:03:41.162Z,11.03
2023-02-03T13:06:17.419Z,17.93
2023-02-03T13:08:56.034Z,17.13
2023-02-03T13:11:31.959Z,12.83
2023-02-03T13:14:15.302Z,13.63
2023-02-03T13:16:51.333Z,14.73
2023-02-03T13:19:25.620Z,13.90
2023-02-03T13:21:52.901Z,16.63
2023-02-03T13:24:26.190Z,16.93
2023-02-03T13:27:30.787Z,18.47
2023-02-03T13:30:31.928Z,18.23
2023-02-03T13:33:42.327Z,16.97
2023-02-03T13:36:39.352Z,12.03
2023-02-03T13:39:40.475Z,18.90
2023-02-03T13:42:23.553Z,18.13
2023-02-03T13:44:57.055Z,14.50
2023-02-03T13:47:28.934Z,14.73
2023-02-03T13:50:01.179Z,12.20
2023-02-03T13:52:34.936Z,23.97
2023-02-03T13:55:05.366Z,15.33
2023-02-03T13:57:36.464Z,17.67
2023-02-03T14:00:27.208Z,14.93
2023-02-03T14:02:56.164Z,15.73
2023-02-03T14:05:42.821Z,14.17
2023-02-03T14:08:52.412Z,20.70
2023-02-03T14:11:41.718Z,15.90
2023-02-03T14:14:45.045Z,16.27
2023-02-03T14:18:24.642Z,9.20
2023-02-03T14:21:10.169Z,11.97
2023-02-03T14:23:49.715Z,12.97
2023-02-03T14:26:30.163Z,14.70
2023-02-03T14:29:00.413Z,15.23
2023-02-03T14:31:28.259Z,14.77
2023-02-03T14:34:14.383Z,12.87
2023-02-03T14:36:55.307Z,20.47
2023-02-03T14:40:11.393Z,13.93
2023-02-03T14:43:21.575Z,13.47
2023-02-03T14:46:32.065Z,18.50
2023-02-03T14:49:30.230Z,16.73
2023-02-03T14:52:16.857Z,12.77
2023-02-03T14:55:05.648Z,18.20
2023-02-03T14:57:43.431Z,14.13
2023-02-03T15:00:31.251Z,24.10
2023-02-03T15:03:30.143Z,17.67
2023-02-03T15:06:01.571Z,14.90
2023-02-03T15:08:45.243Z,10.77
2023-02-03T15:11:30.102Z,14.27
2023-02-03T15:14:21.774Z,24.37
2023-02-03T15:16:55.916Z,18.37
2023-02-03T15:19:28.196Z,14.80
2023-02-03T15:21:55.546Z,20.07
2023-02-03T15:24:24.121Z,14.63
2023-02-03T15:26:54.489Z,23.50
2023-02-03T15:29:33.356Z,14.07
2023-02-03T15:32:09.557Z,19.87
2023-02-03T15:34:43.572Z,17.10
2023-02-03T15:37:18.797Z,17.63
2023-02-03T15:40:00.742Z,19.30
2023-02-03T15:42:35.542Z,17.93
2023-02-03T15:45:12.867Z,13.93
2023-02-03T15:47:48.132Z,15.67
2023-02-03T15:50:30.724Z,14.90
2023-02-03T15:53:04.755Z,17.63
2023-02-03T15:55:37.891Z,14.37
2023-02-03T15:58:05.749Z,15.73
2023-02-03T16:00:39.536Z,18.57
2023-02-03T16:03:19.652Z,19.13
2023-02-03T16:05:50.101Z,19.43
2023-02-03T16:08:39.677Z,18.40
2023-02-03T16:11:32.352Z,16.87
2023-02-03T16:14:03.225Z,17.70
2023-02-03T16:16:36.674Z,24.63
2023-02-03T16:19:12.135Z,18.90
2023-02-03T16:21:54.180Z,23.67
2023-02-03T16:24:38.857Z,16.97
2023-02-03T16:27:36.026Z,27.77
2023-02-03T16:30:42.811Z,23.77
2023-02-03T16:33:35.238Z,18.37
2023-02-03T16:36:29.913Z,22.40
2023-02-03T16:39:21.705Z,23.13
2023-02-03T16:42:07.489Z,26.37
2023-02-03T16:44:57.167Z,20.17
2023-02-03T16:47:45.974Z,24.67
2023-02-03T16:50:38.595Z,16.10
2023-02-03T16:53:12.375Z,17.57
2023-02-03T16:55:41.226Z,23.13
2023-02-03T16:58:09.547Z,19.23
2023-02-03T17:00:36.524Z,22.37
2023-02-03T17:03:05.375Z,24.03
2023-02-03T17:05:36.512Z,23.43
2023-02-03T17:08:03.737Z,22.27
2023-02-03T17:10:30.678Z,21.13
2023-02-03T17:12:58.893Z,16.70
2023-02-03T17:15:26.065Z,17.23
2023-02-03T17:17:52.940Z,19.93
2023-02-03T17:20:20.273Z,20.33
2023-02-03T17:22:47.518Z,23.07
2023-02-03T17:25:14.501Z,23.67
2023-02-03T17:27:41.472Z,21.93
2023-02-03T17:30:11.889Z,20.63
2023-02-03T17:32:39.033Z,26.20
2023-02-03T17:35:06.854Z,22.17
2023-02-03T17:37:34.357Z,16.20
2023-02-03T17:53:57.321Z,24.30
2023-02-03T17:56:25.906Z,21.63
2023-02-03T17:58:55.570Z,22.67
2023-02-03T18:01:25.257Z,24.77
2023-02-03T18:03:55.616Z,25.37
2023-02-03T18:06:26.390Z,22.80
2023-02-03T18:08:54.340Z,29.13
2023-02-03T18:11:21.484Z,28.13
2023-02-03T18:13:49.849Z,15.47
2023-02-03T18:16:22.197Z,23.60
2023-02-03T18:18:52.544Z,22.87
2023-02-03T18:21:22.564Z,23.67
2023-02-03T18:23:51.105Z,20.43
2023-02-03T18:26:20.317Z,18.20
2023-02-03T18:28:50.523Z,26.70
2023-02-03T18:31:17.664Z,26.47
2023-02-03T18:33:46.482Z,25.77
2023-02-03T18:36:16.706Z,16.00
2023-02-03T18:38:46.193Z,20.00
2023-02-03T18:41:16.241Z,14.17
2023-02-03T18:43:43.892Z,22.30
2023-02-03T18:46:13.132Z,28.27
2023-02-03T18:48:40.104Z,17.63
2023-02-03T18:51:09.295Z,20.17
2023-02-03T18:53:38.288Z,24.63
2023-02-03T18:56:07.722Z,21.13
2023-02-03T18:58:36.817Z,24.80
2023-02-03T19:01:04.003Z,24.13
2023-02-03T19:03:31.090Z,29.20
2023-02-03T19:05:58.020Z,20.33
2023-02-03T19:08:25.170Z,21.47
2023-02-03T19:10:54.627Z,22.60
2023-02-03T19:13:22.182Z,19.37
2023-02-03T19:15:51.414Z,24.07
2023-02-03T19:18:18.366Z,22.50
2023-02-03T19:20:45.509Z,23.07
2023-02-03T19:23:12.651Z,19.90
2023-02-03T19:25:40.413Z,23.90
2023-02-03T19:28:14.247Z,24.60
2023-02-03T19:30:44.824Z,28.47
2023-02-03T19:33:11.939Z,23.57
2023-02-03T19:35:39.389Z,22.83
2023-02-03T19:38:06.359Z,24.40
2023-02-03T19:40:33.336Z,23.67
2023-02-03T19:43:00.473Z,23.50
2023-02-03T19:45:28.803Z,27.13
2023-02-03T19:47:55.843Z,24.40
2023-02-03T19:50:22.856Z,19.57
2023-02-03T19:52:49.727Z,24.37
2023-02-03T19:55:17.080Z,28.13
2023-02-03T19:57:44.020Z,20.93
2023-02-03T20:00:13.292Z,23.80
2023-02-03T20:02:41.990Z,22.20
2023-02-03T20:05:10.667Z,28.67
2023-02-03T20:07:37.610Z,23.23
2023-02-03T20:10:05.004Z,23.90
2023-02-03T20:12:32.116Z,24.33
2023-02-03T20:15:01.356Z,22.20
2023-02-03T20:17:28.562Z,19.93
2023-02-03T20:19:56.804Z,16.50
2023-02-03T20:22:23.902Z,27.87
2023-02-03T20:24:50.812Z,27.33
2023-02-03T20:27:17.883Z,21.00
2023-02-03T20:29:44.887Z,27.47
2023-02-03T20:32:11.798Z,29.30
2023-02-03T20:34:39.484Z,23.93
2023-02-03T20:37:08.402Z,27.87
2023-02-03T20:39:35.466Z,25.67
2023-02-03T20:42:02.499Z,23.83
2023-02-03T20:44:29.453Z,28.13
2023-02-03T20:46:56.424Z,27.20
2023-02-03T20:49:23.304Z,22.70
2023-02-03T20:51:50.200Z,32.67
2023-02-03T20:54:21.483Z,28.50
2023-02-03T20:56:49.255Z,28.20
2023-02-03T20:59:19.265Z,26.73
2023-02-03T21:01:46.948Z,28.20
2023-02-03T21:04:34.654Z,20.37
2023-02-03T21:07:11.335Z,25.67
2023-02-03T21:09:40.154Z,24.27
2023-02-03T21:12:11.736Z,29.43
2023-02-03T21:14:43.275Z,24.60
2023-02-03T21:17:17.845Z,26.57
2023-02-03T21:19:45.306Z,17.80
2023-02-03T21:22:21.094Z,22.17
2023-02-03T21:24:54.868Z,18.73
2023-02-03T21:27:28.789Z,25.17
2023-02-03T21:29:57.483Z,23.27
2023-02-03T21:32:32.212Z,24.87
2023-02-03T21:34:59.167Z,22.87
2023-02-03T21:37:39.289Z,20.47
2023-02-03T21:40:26.485Z,23.37
2023-02-03T21:42:54.769Z,19.00
2023-02-03T21:45:34.237Z,24.20
2023-02-03T21:48:22.484Z,24.33
2023-02-03T21:50:49.373Z,27.00
2023-02-03T21:53:26.760Z,26.20
2023-02-03T21:55:55.430Z,25.00
2023-02-03T21:58:25.878Z,31.60
2023-02-03T22:00:54.841Z,31.63
2023-02-03T22:03:30.799Z,26.80
2023-02-03T22:06:22.777Z,27.40
2023-02-03T22:08:52.656Z,28.27
2023-02-03T22:11:23.767Z,31.13
2023-02-03T22:13:50.897Z,30.83
2023-02-03T22:16:18.703Z,23.20
2023-02-03T22:18:46.867Z,24.67
2023-02-03T22:21:14.708Z,19.60
2023-02-03T22:23:42.293Z,23.90
2023-02-03T22:26:11.084Z,18.57
2023-02-03T22:28:40.601Z,21.47
2023-02-03T22:31:08.423Z,23.27
2023-02-03T22:33:36.128Z,23.93
2023-02-03T22:36:03.959Z,21.13
2023-02-03T22:38:30.838Z,21.27
2023-02-03T22:40:57.950Z,16.70
2023-02-03T22:43:24.945Z,17.67
2023-02-03T22:45:53.679Z,18.50
2023-02-03T22:48:21.355Z,18.43
2023-02-03T22:50:48.282Z,15.80
2023-02-03T22:53:15.305Z,15.70
2023-02-03T22:55:42.895Z,12.50
2023-02-03T22:58:09.859Z,13.57
2023-02-03T23:00:36.828Z,11.03
2023-02-03T23:03:05.970Z,12.97
2023-02-03T23:05:33.072Z,9.17
2023-02-03T23:08:00.162Z,12.13
2023-02-03T23:10:32.438Z,11.77
2023-02-03T23:13:00.676Z,7.97
2023-02-03T23:15:28.913Z,12.67
2023-02-03T23:17:56.088Z,9.03
2023-02-03T23:20:24.341Z,17.20
2023-02-03T23:22:51.424Z,9.43
2023-02-03T23:25:18.791Z,7.97
2023-02-03T23:27:45.954Z,9.17
2023-02-03T23:30:14.990Z,12.17
2023-02-03T23:32:42.094Z,8.17
2023-02-03T23:35:28.366Z,7.20
2023-02-03T23:37:56.554Z,12.23
2023-02-03T23:40:23.627Z,9.67
2023-02-03T23:42:50.607Z,9.17
2023-02-03T23:45:17.804Z,8.27
2023-02-03T23:47:46.424Z,6.27
2023-02-03T23:50:21.235Z,8.00
2023-02-03T23:52:48.809Z,9.60
2023-02-03T23:55:19.672Z,11.73
2023-02-03T23:57:46.955Z,6.67
